createdAt,value
2022-12-08T00:01:20.739Z,-1.05
2022-12-08T00:03:48.279Z,-1.07
2022-12-08T00:06:43.780Z,-1.16
2022-12-08T00:09:38.169Z,-1.12
2022-12-08T00:12:11.605Z,-1.14
2022-12-08T00:14:43.474Z,-1.15
2022-12-08T00:17:12.067Z,-1.14
2022-12-08T00:19:39.948Z,-1.18
2022-12-08T00:22:08.420Z,-1.17
2022-12-08T00:24:40.534Z,-1.21
2022-12-08T00:27:08.636Z,-1.21
2022-12-08T00:29:35.146Z,-1.22
2022-12-08T00:32:01.837Z,-1.25
2022-12-08T00:34:28.474Z,-1.27
2022-12-08T00:36:55.072Z,-1.28
2022-12-08T00:39:21.770Z,-1.28
2022-12-08T00:42:06.714Z,-1.28
2022-12-08T00:44:33.265Z,-1.28
2022-12-08T00:46:59.785Z,-1.52
2022-12-08T00:49:26.526Z,-1.58
2022-12-08T00:51:53.212Z,-1.34
2022-12-08T00:54:20.274Z,-1.29
2022-12-08T00:56:46.858Z,-1.34
2022-12-08T00:59:13.378Z,-1.29
2022-12-08T01:01:40.042Z,-1.54
2022-12-08T01:04:08.623Z,-1.31
2022-12-08T01:06:36.202Z,-1.31
2022-12-08T01:09:04.633Z,-1.35
2022-12-08T01:11:31.629Z,-1.41
2022-12-08T01:13:58.306Z,-1.41
2022-12-08T01:16:27.818Z,-1.39
2022-12-08T01:18:55.016Z,-1.36
2022-12-08T01:21:22.007Z,-1.38
2022-12-08T01:23:48.582Z,-1.40
2022-12-08T01:26:16.921Z,-1.32
2022-12-08T01:28:44.446Z,-1.29
2022-12-08T01:31:16.696Z,-1.29
2022-12-08T01:33:43.913Z,-1.31
2022-12-08T01:36:20.679Z,-1.33
2022-12-08T01:38:47.509Z,-1.39
2022-12-08T01:41:19.420Z,-1.36
2022-12-08T01:44:00.985Z,-1.40
2022-12-08T01:46:30.715Z,-1.40
2022-12-08T01:49:05.266Z,-1.56
2022-12-08T01:51:38.395Z,-1.59
2022-12-08T01:54:06.926Z,-1.44
2022-12-08T01:56:58.876Z,-1.64
2022-12-08T01:59:26.915Z,-1.55
2022-12-08T02:01:53.613Z,-1.55
2022-12-08T02:04:20.334Z,-1.75
2022-12-08T02:06:49.579Z,-1.62
2022-12-08T02:09:16.781Z,-1.66
2022-12-08T02:11:43.287Z,-1.79
2022-12-08T02:14:13.516Z,-1.66
2022-12-08T02:16:57.926Z,-1.82
2022-12-08T02:20:02.567Z,-1.72
2022-12-08T02:22:52.198Z,-1.80
2022-12-08T02:25:49.723Z,-1.79
2022-12-08T02:28:38.094Z,-1.80
2022-12-08T02:31:34.643Z,-1.82
2022-12-08T02:34:30.473Z,-1.91
2022-12-08T02:37:06.032Z,-1.85
2022-12-08T02:39:35.465Z,-1.84
2022-12-08T02:42:08.498Z,-1.86
2022-12-08T02:45:00.244Z,-1.88
2022-12-08T02:47:28.144Z,-1.90
2022-12-08T02:49:59.046Z,-1.96
2022-12-08T02:52:25.522Z,-1.91
2022-12-08T02:54:59.528Z,-1.93
2022-12-08T02:57:56.137Z,-1.95
2022-12-08T03:00:25.251Z,-1.97
2022-12-08T03:03:09.972Z,-1.95
2022-12-08T03:06:09.330Z,-1.98
2022-12-08T03:08:41.818Z,-2.01
2022-12-08T03:11:15.077Z,-2.04
2022-12-08T03:13:46.350Z,-2.09
2022-12-08T03:16:17.478Z,-2.08
2022-12-08T03:18:49.535Z,-2.11
2022-12-08T03:21:19.438Z,-2.21
2022-12-08T03:23:49.633Z,-2.08
2022-12-08T03:26:31.809Z,-2.08
2022-12-08T03:28:58.716Z,-2.21
2022-12-08T03:31:29.033Z,-2.16
2022-12-08T03:33:58.497Z,-2.21
2022-12-08T03:36:26.091Z,-2.26
2022-12-08T03:38:54.238Z,-2.19
2022-12-08T03:41:22.661Z,-2.23
2022-12-08T03:43:54.290Z,-2.19
2022-12-08T03:48:48.533Z,-2.32
2022-12-08T03:51:15.749Z,-2.25
2022-12-08T03:53:42.609Z,-2.27
2022-12-08T03:56:26.289Z,-2.27
2022-12-08T03:58:53.950Z,-2.28
2022-12-08T04:01:21.433Z,-2.30
2022-12-08T04:03:48.620Z,-2.31
2022-12-08T04:06:15.970Z,-2.32
2022-12-08T04:08:42.904Z,-2.36
2022-12-08T04:11:09.840Z,-2.37
2022-12-08T04:13:38.340Z,-2.43
2022-12-08T04:16:05.994Z,-2.34
2022-12-08T04:18:33.503Z,-2.35
2022-12-08T04:21:00.142Z,-2.54
2022-12-08T04:23:26.807Z,-2.38
2022-12-08T04:25:53.823Z,-2.44
2022-12-08T04:28:20.519Z,-2.48
2022-12-08T04:30:48.327Z,-2.50
2022-12-08T04:33:15.014Z,-2.60
2022-12-08T04:35:41.634Z,-2.63
2022-12-08T04:38:08.286Z,-2.50
2022-12-08T04:40:34.942Z,-2.63
2022-12-08T04:43:01.467Z,-2.78
2022-12-08T04:45:27.981Z,-2.73
2022-12-08T04:47:54.555Z,-2.71
2022-12-08T04:50:21.299Z,-2.54
2022-12-08T04:52:48.094Z,-2.56
2022-12-08T04:55:14.753Z,-2.73
2022-12-08T04:57:41.286Z,-2.63
2022-12-08T05:00:08.786Z,-2.64
2022-12-08T05:02:35.910Z,-2.69
2022-12-08T05:05:02.496Z,-2.71
2022-12-08T05:07:29.049Z,-2.65
2022-12-08T05:09:55.716Z,-2.80
2022-12-08T05:12:22.237Z,-2.69
2022-12-08T05:14:48.819Z,-2.71
2022-12-08T05:17:17.168Z,-2.69
2022-12-08T05:19:44.137Z,-2.70
2022-12-08T05:22:11.164Z,-2.71
2022-12-08T05:24:42.501Z,-2.76
2022-12-08T05:27:12.462Z,-2.74
2022-12-08T05:29:39.000Z,-2.77
2022-12-08T05:32:05.832Z,-2.78
2022-12-08T05:34:32.482Z,-2.81
2022-12-08T05:36:59.037Z,-2.82
2022-12-08T05:39:25.674Z,-2.81
2022-12-08T05:41:52.187Z,-2.80
2022-12-08T05:44:18.751Z,-2.80
2022-12-08T05:46:45.400Z,-2.98
2022-12-08T05:49:11.963Z,-2.88
2022-12-08T05:51:38.518Z,-2.87
2022-12-08T05:54:05.197Z,-2.84
2022-12-08T05:56:31.714Z,-2.91
2022-12-08T05:58:58.392Z,-3.05
2022-12-08T06:01:30.719Z,-2.93
2022-12-08T06:03:59.891Z,-2.94
2022-12-08T06:06:27.038Z,-3.10
2022-12-08T06:08:53.905Z,-3.14
2022-12-08T06:11:26.223Z,-2.94
2022-12-08T06:13:53.886Z,-2.90
2022-12-08T06:16:20.550Z,-2.94
2022-12-08T06:18:47.507Z,-2.89
2022-12-08T06:21:15.477Z,-2.91
2022-12-08T06:23:42.802Z,-2.89
2022-12-08T06:26:12.370Z,-2.90
2022-12-08T06:28:39.773Z,-2.88
2022-12-08T06:31:11.084Z,-2.88
2022-12-08T06:33:38.449Z,-3.11
2022-12-08T06:36:06.266Z,-3.13
2022-12-08T06:38:33.409Z,-3.16
2022-12-08T06:41:00.660Z,-3.06
2022-12-08T06:43:27.720Z,-2.99
2022-12-08T06:45:54.355Z,-2.95
2022-12-08T06:48:21.111Z,-3.09
2022-12-08T06:50:47.609Z,-2.96
2022-12-08T06:53:15.220Z,-3.08
2022-12-08T06:56:01.812Z,-2.93
2022-12-08T06:58:28.587Z,-3.04
2022-12-08T07:00:55.324Z,-3.03
2022-12-08T07:03:22.150Z,-3.04
2022-12-08T07:05:49.221Z,-3.16
2022-12-08T07:08:15.890Z,-3.16
2022-12-08T07:10:42.781Z,-3.12
2022-12-08T07:13:09.409Z,-3.14
2022-12-08T07:15:35.926Z,-3.14
2022-12-08T07:18:02.506Z,-3.07
2022-12-08T07:20:29.259Z,-3.04
2022-12-08T07:22:56.142Z,-3.04
2022-12-08T07:25:23.212Z,-3.12
2022-12-08T07:27:51.622Z,-3.08
2022-12-08T07:30:18.502Z,-3.23
2022-12-08T07:32:45.467Z,-3.24
2022-12-08T07:35:12.056Z,-3.20
2022-12-08T07:37:38.897Z,-3.09
2022-12-08T07:40:07.666Z,-3.09
2022-12-08T07:42:34.684Z,-3.24
2022-12-08T07:45:01.302Z,-3.14
2022-12-08T07:47:27.875Z,-3.11
2022-12-08T07:49:54.380Z,-3.12
2022-12-08T07:52:20.986Z,-3.13
2022-12-08T07:54:47.533Z,-3.32
2022-12-08T07:57:14.159Z,-3.40
2022-12-08T07:59:40.677Z,-3.22
2022-12-08T08:02:24.017Z,-3.18
2022-12-08T08:04:51.852Z,-3.42
2022-12-08T08:07:18.414Z,-3.26
2022-12-08T08:09:45.752Z,-3.21
2022-12-08T08:15:04.096Z,-3.17
2022-12-08T08:17:30.848Z,-3.18
2022-12-08T08:19:57.949Z,-3.23
2022-12-08T08:22:25.426Z,-3.26
2022-12-08T08:24:52.278Z,-3.24
2022-12-08T08:27:19.556Z,-3.21
2022-12-08T08:29:46.146Z,-3.11
2022-12-08T08:32:12.731Z,-3.16
2022-12-08T08:34:39.464Z,-3.18
2022-12-08T08:37:06.131Z,-3.25
2022-12-08T08:39:32.866Z,-3.16
2022-12-08T08:41:59.413Z,-3.22
2022-12-08T08:44:25.947Z,-3.13
2022-12-08T08:46:52.637Z,-3.08
2022-12-08T08:49:20.155Z,-3.17
2022-12-08T08:51:46.877Z,-3.02
2022-12-08T08:54:13.760Z,-2.86
2022-12-08T08:56:40.286Z,-2.72
2022-12-08T08:59:06.823Z,-2.76
2022-12-08T09:01:33.954Z,-2.80
2022-12-08T09:04:01.448Z,-2.67
2022-12-08T09:06:28.559Z,-2.59
2022-12-08T09:08:55.404Z,-2.60
2022-12-08T09:11:23.619Z,-2.53
2022-12-08T09:13:51.737Z,-2.41
2022-12-08T09:16:22.322Z,-2.35
2022-12-08T09:18:51.792Z,-2.36
2022-12-08T09:21:23.078Z,-2.38
2022-12-08T09:23:51.413Z,-2.36
2022-12-08T09:26:18.660Z,-2.16
2022-12-08T09:28:46.842Z,-2.08
2022-12-08T09:31:14.700Z,-2.04
2022-12-08T09:33:41.839Z,-2.11
2022-12-08T09:36:09.074Z,-1.83
2022-12-08T09:38:36.001Z,-1.98
2022-12-08T09:41:07.774Z,-1.97
2022-12-08T09:43:55.802Z,-1.60
2022-12-08T09:46:22.595Z,-1.61
2022-12-08T09:48:57.005Z,-1.64
2022-12-08T09:51:31.650Z,-1.52
2022-12-08T09:54:11.984Z,-1.37
2022-12-08T09:56:39.528Z,-1.39
2022-12-08T09:59:09.218Z,-1.17
2022-12-08T10:01:41.669Z,-1.19
2022-12-08T10:04:28.936Z,-1.19
2022-12-08T10:06:58.434Z,-0.96
2022-12-08T10:09:41.558Z,-1.06
2022-12-08T10:12:20.145Z,-0.79
2022-12-08T10:15:16.769Z,-0.71
2022-12-08T10:17:51.125Z,-0.61
2022-12-08T10:20:26.490Z,-0.70
2022-12-08T10:23:07.521Z,-0.54
2022-12-08T10:25:39.315Z,-0.39
2022-12-08T10:28:05.826Z,-0.29
2022-12-08T10:30:32.486Z,-0.35
2022-12-08T10:32:59.814Z,-0.28
2022-12-08T10:35:43.315Z,0.03
2022-12-08T10:38:17.903Z,0.15
2022-12-08T10:40:46.661Z,0.25
2022-12-08T10:43:18.713Z,0.34
2022-12-08T10:45:45.384Z,0.32
2022-12-08T10:48:19.323Z,0.54
2022-12-08T10:50:57.080Z,0.68
2022-12-08T10:53:29.469Z,0.87
2022-12-08T10:56:02.070Z,1.12
2022-12-08T10:58:43.019Z,1.16
2022-12-08T11:01:20.114Z,1.48
2022-12-08T11:03:58.338Z,1.45
2022-12-08T11:06:39.165Z,1.74
2022-12-08T11:09:18.052Z,1.98
2022-12-08T11:11:46.144Z,2.14
2022-12-08T11:14:19.566Z,2.32
2022-12-08T11:16:46.252Z,2.34
2022-12-08T11:19:18.326Z,2.66
2022-12-08T11:21:46.112Z,2.73
2022-12-08T11:24:15.986Z,2.95
2022-12-08T11:27:04.525Z,3.06
2022-12-08T11:29:35.336Z,3.12
2022-12-08T11:32:04.605Z,3.20
2022-12-08T11:34:41.916Z,3.27
2022-12-08T11:37:34.644Z,3.38
2022-12-08T11:40:07.514Z,3.31
2022-12-08T11:42:41.671Z,3.52
2022-12-08T11:45:15.963Z,3.46
2022-12-08T11:48:05.936Z,3.69
2022-12-08T11:50:43.042Z,3.70
2022-12-08T11:53:25.004Z,3.83
2022-12-08T11:55:57.715Z,3.92
2022-12-08T11:58:41.432Z,3.93
2022-12-08T12:01:19.194Z,3.94
2022-12-08T12:03:54.469Z,4.15
2022-12-08T12:06:55.178Z,4.24
2022-12-08T12:09:48.626Z,4.29
2022-12-08T12:12:39.632Z,4.20
2022-12-08T12:15:40.284Z,4.45
2022-12-08T12:18:14.848Z,4.52
2022-12-08T12:20:53.239Z,4.55
2022-12-08T12:23:38.842Z,4.52
2022-12-08T12:26:16.699Z,4.65
2022-12-08T12:28:49.817Z,4.66
2022-12-08T12:31:21.803Z,4.68
2022-12-08T12:33:50.059Z,4.57
2022-12-08T12:36:17.276Z,4.67
2022-12-08T12:39:01.364Z,4.59
2022-12-08T12:41:34.353Z,4.68
2022-12-08T12:44:24.305Z,4.74
2022-12-08T12:46:50.892Z,4.76
2022-12-08T12:49:49.768Z,4.80
2022-12-08T12:52:16.209Z,4.81
2022-12-08T12:55:03.810Z,4.73
2022-12-08T12:57:37.364Z,4.68
2022-12-08T13:00:03.881Z,4.64
2022-12-08T13:02:39.985Z,4.56
2022-12-08T13:05:30.848Z,4.52
2022-12-08T13:08:02.067Z,4.58
2022-12-08T13:10:33.248Z,4.48
2022-12-08T13:13:21.016Z,4.65
2022-12-08T13:15:56.615Z,4.58
2022-12-08T13:18:32.256Z,4.63
2022-12-08T13:21:15.009Z,4.67
2022-12-08T13:23:45.938Z,4.62
2022-12-08T13:26:18.408Z,4.67
2022-12-08T13:29:01.337Z,4.65
2022-12-08T13:31:49.831Z,4.70
2022-12-08T13:34:51.781Z,4.75
2022-12-08T13:37:54.428Z,4.75
2022-12-08T13:40:25.419Z,4.73
2022-12-08T13:43:10.591Z,4.69
2022-12-08T13:46:41.987Z,4.63
2022-12-08T13:57:32.761Z,4.54
2022-12-08T14:00:02.323Z,4.52
2022-12-08T14:02:47.774Z,4.42
2022-12-08T14:05:40.676Z,4.45
2022-12-08T14:08:07.088Z,4.36
2022-12-08T14:10:33.642Z,4.35
2022-12-08T14:13:05.538Z,4.37
2022-12-08T14:15:37.756Z,4.36
2022-12-08T14:18:04.682Z,4.35
2022-12-08T14:20:46.526Z,4.35
2022-12-08T14:23:18.763Z,4.30
2022-12-08T14:25:47.979Z,4.34
2022-12-08T14:28:14.591Z,4.34
2022-12-08T14:30:41.248Z,4.32
2022-12-08T14:33:14.687Z,4.33
2022-12-08T14:35:41.498Z,4.34
2022-12-08T14:38:16.858Z,4.37
2022-12-08T14:41:06.780Z,4.39
2022-12-08T14:43:33.619Z,4.32
2022-12-08T14:46:02.890Z,4.37
2022-12-08T14:48:36.342Z,4.33
2022-12-08T14:51:33.252Z,4.30
2022-12-08T14:54:09.916Z,4.14
2022-12-08T14:56:40.427Z,4.09
2022-12-08T14:59:17.523Z,4.18
2022-12-08T15:01:44.974Z,4.10
2022-12-08T15:04:14.773Z,4.05
2022-12-08T15:06:52.966Z,4.00
2022-12-08T15:09:32.443Z,3.93
2022-12-08T15:12:24.724Z,3.80
2022-12-08T15:14:57.680Z,3.80
2022-12-08T15:17:30.229Z,3.71
2022-12-08T15:19:58.239Z,3.67
2022-12-08T15:22:26.638Z,3.61
2022-12-08T15:24:53.925Z,3.57
2022-12-08T15:27:23.103Z,3.50
2022-12-08T15:29:50.529Z,3.28
2022-12-08T15:32:22.290Z,3.22
2022-12-08T15:34:49.061Z,3.29
2022-12-08T15:37:24.061Z,3.12
2022-12-08T15:39:51.274Z,3.17
2022-12-08T15:42:17.874Z,3.11
2022-12-08T15:44:44.567Z,3.00
2022-12-08T15:47:16.765Z,2.96
2022-12-08T15:49:43.891Z,2.84
2022-12-08T15:52:16.207Z,2.81
2022-12-08T15:54:42.832Z,2.75
2022-12-08T16:00:52.820Z,2.59
2022-12-08T16:09:39.055Z,2.27
2022-12-08T16:13:47.982Z,2.20
2022-12-08T16:18:23.191Z,1.94
2022-12-08T16:23:44.968Z,1.63
2022-12-08T16:26:28.646Z,1.69
2022-12-08T16:29:02.980Z,1.57
2022-12-08T16:31:29.648Z,1.36
2022-12-08T16:33:56.270Z,1.42
2022-12-08T16:36:22.807Z,1.30
2022-12-08T16:38:49.323Z,1.27
2022-12-08T16:41:36.072Z,1.21
2022-12-08T16:44:04.154Z,1.14
2022-12-08T16:46:31.048Z,0.99
2022-12-08T16:48:59.066Z,0.83
2022-12-08T16:51:27.363Z,0.71
2022-12-08T16:53:55.332Z,0.92
2022-12-08T16:56:26.184Z,0.88
2022-12-08T16:58:57.136Z,0.77
2022-12-08T17:01:23.968Z,0.80
2022-12-08T17:04:14.246Z,0.78
2022-12-08T17:06:37.194Z,0.68
2022-12-08T17:09:03.962Z,0.72
2022-12-08T17:11:36.275Z,0.62
2022-12-08T17:14:09.207Z,0.73
2022-12-08T17:16:35.913Z,0.67
2022-12-08T17:19:02.554Z,0.64
2022-12-08T17:21:29.123Z,0.64
2022-12-08T17:23:55.757Z,0.54
2022-12-08T17:26:22.364Z,0.60
2022-12-08T17:29:04.256Z,0.62
2022-12-08T17:31:32.572Z,0.32
2022-12-08T17:34:04.325Z,0.54
2022-12-08T17:36:31.361Z,0.46
2022-12-08T17:38:59.460Z,0.40
2022-12-08T17:41:26.112Z,0.17
2022-12-08T17:43:52.710Z,0.38
2022-12-08T17:46:20.607Z,0.41
2022-12-08T17:48:50.181Z,0.39
2022-12-08T17:51:16.732Z,0.29
2022-12-08T17:53:43.391Z,0.27
2022-12-08T17:56:19.793Z,0.28
2022-12-08T17:58:52.630Z,0.18
2022-12-08T18:01:21.399Z,0.10
2022-12-08T18:03:49.235Z,0.13
2022-12-08T18:06:17.567Z,0.09
2022-12-08T18:08:44.439Z,-0.19
2022-12-08T18:11:17.906Z,-0.03
2022-12-08T18:13:45.852Z,-0.09
2022-12-08T18:16:12.531Z,-0.39
2022-12-08T18:18:39.560Z,-0.19
2022-12-08T18:21:06.965Z,-0.24
2022-12-08T18:23:34.806Z,-0.42
2022-12-08T18:26:03.175Z,-0.33
2022-12-08T18:28:29.713Z,-0.47
2022-12-08T18:30:56.356Z,-0.48
2022-12-08T18:33:22.949Z,-0.42
2022-12-08T18:35:49.493Z,-0.53
2022-12-08T18:38:16.081Z,-0.49
2022-12-08T18:40:42.753Z,-0.43
2022-12-08T18:43:09.297Z,-0.75
2022-12-08T18:45:37.018Z,-0.54
2022-12-08T18:48:03.822Z,-0.57
2022-12-08T18:50:30.367Z,-0.65
2022-12-08T18:52:56.998Z,-0.74
2022-12-08T18:55:23.699Z,-0.75
2022-12-08T18:57:50.296Z,-0.85
2022-12-08T19:00:18.668Z,-0.75
2022-12-08T19:02:46.806Z,-0.79
2022-12-08T19:05:14.171Z,-0.82
2022-12-08T19:07:42.547Z,-0.95
2022-12-08T19:10:10.328Z,-1.02
2022-12-08T19:12:37.033Z,-1.16
2022-12-08T19:15:04.264Z,-1.09
2022-12-08T19:17:31.049Z,-0.98
2022-12-08T19:19:57.567Z,-1.08
2022-12-08T19:22:24.158Z,-1.16
2022-12-08T19:24:50.705Z,-1.14
2022-12-08T19:27:17.299Z,-1.18
2022-12-08T19:29:43.800Z,-1.26
2022-12-08T19:32:10.402Z,-1.36
2022-12-08T19:34:37.032Z,-1.24
2022-12-08T19:37:03.874Z,-1.25
2022-12-08T19:39:49.252Z,-1.30
2022-12-08T19:42:37.325Z,-1.36
2022-12-08T19:45:13.235Z,-1.35
2022-12-08T19:47:41.163Z,-1.38
2022-12-08T19:50:29.324Z,-1.41
2022-12-08T19:52:56.383Z,-1.43
2022-12-08T19:55:26.249Z,-1.57
2022-12-08T19:57:53.440Z,-1.39
2022-12-08T20:00:21.287Z,-1.39
2022-12-08T20:02:48.522Z,-1.57
2022-12-08T20:05:15.626Z,-1.44
2022-12-08T20:07:42.910Z,-1.74
2022-12-08T20:10:16.497Z,-1.43
2022-12-08T20:12:43.179Z,-1.47
2022-12-08T20:15:10.328Z,-1.47
2022-12-08T20:17:38.450Z,-1.56
2022-12-08T20:20:07.578Z,-1.50
2022-12-08T20:22:34.674Z,-1.55
2022-12-08T20:25:02.292Z,-1.56
2022-12-08T20:27:29.278Z,-1.67
2022-12-08T20:29:55.946Z,-1.62
2022-12-08T20:32:22.494Z,-1.69
2022-12-08T20:34:49.217Z,-1.87
2022-12-08T20:37:15.793Z,-1.72
2022-12-08T20:39:42.424Z,-1.72
2022-12-08T20:42:12.696Z,-1.89
2022-12-08T20:44:43.344Z,-1.99
2022-12-08T20:47:11.141Z,-2.06
2022-12-08T20:49:38.937Z,-1.89
2022-12-08T20:52:05.585Z,-1.91
2022-12-08T20:54:32.233Z,-2.05
2022-12-08T20:56:58.821Z,-2.15
2022-12-08T20:59:26.448Z,-1.99
2022-12-08T21:01:53.555Z,-2.00
2022-12-08T21:04:21.124Z,-2.02
2022-12-08T21:06:48.145Z,-2.10
2022-12-08T21:09:15.022Z,-2.14
2022-12-08T21:11:41.629Z,-2.24
2022-12-08T21:14:08.562Z,-2.22
2022-12-08T21:16:35.313Z,-2.28
2022-12-08T21:19:02.084Z,-2.21
2022-12-08T21:21:28.837Z,-2.38
2022-12-08T21:23:55.356Z,-2.48
2022-12-08T21:26:25.994Z,-2.27
2022-12-08T21:28:54.830Z,-2.41
2022-12-08T21:31:22.249Z,-2.32
2022-12-08T21:33:49.241Z,-2.43
2022-12-08T21:36:19.062Z,-2.37
2022-12-08T21:38:48.057Z,-2.39
2022-12-08T21:41:37.603Z,-2.42
2022-12-08T21:44:05.685Z,-2.70
2022-12-08T21:46:33.304Z,-2.48
2022-12-08T21:49:00.328Z,-2.54
2022-12-08T21:51:27.170Z,-2.54
2022-12-08T21:53:54.482Z,-2.62
2022-12-08T21:56:21.081Z,-2.60
2022-12-08T21:58:47.977Z,-2.62
2022-12-08T22:01:14.871Z,-2.62
2022-12-08T22:03:42.086Z,-2.82
2022-12-08T22:06:12.321Z,-2.68
2022-12-08T22:08:39.819Z,-2.67
2022-12-08T22:11:08.103Z,-2.75
2022-12-08T22:13:36.284Z,-2.67
2022-12-08T22:16:05.637Z,-2.66
2022-12-08T22:18:33.891Z,-2.73
2022-12-08T22:21:00.581Z,-2.75
2022-12-08T22:23:28.500Z,-2.69
2022-12-08T22:26:02.636Z,-2.70
2022-12-08T22:28:33.121Z,-2.71
2022-12-08T22:30:59.763Z,-2.77
2022-12-08T22:33:29.809Z,-2.86
2022-12-08T22:36:08.056Z,-2.74
2022-12-08T22:38:36.483Z,-2.90
2022-12-08T22:41:05.664Z,-2.81
2022-12-08T22:43:33.238Z,-2.80
2022-12-08T22:46:00.392Z,-2.87
2022-12-08T22:48:27.375Z,-2.82
2022-12-08T22:51:01.034Z,-2.82
2022-12-08T22:53:27.521Z,-2.88
2022-12-08T22:55:54.025Z,-2.98
2022-12-08T22:58:20.873Z,-2.90
2022-12-08T23:00:47.808Z,-2.88
2022-12-08T23:03:14.628Z,-2.89
2022-12-08T23:05:41.647Z,-3.06
2022-12-08T23:08:09.403Z,-3.04
2022-12-08T23:10:36.306Z,-2.94
2022-12-08T23:13:04.144Z,-2.99
2022-12-08T23:15:31.599Z,-2.96
2022-12-08T23:17:58.662Z,-2.97
2022-12-08T23:20:25.737Z,-3.03
2022-12-08T23:22:53.928Z,-3.03
2022-12-08T23:25:20.534Z,-3.15
2022-12-08T23:27:47.579Z,-3.09
2022-12-08T23:30:15.152Z,-3.04
2022-12-08T23:32:42.024Z,-3.16
2022-12-08T23:35:09.960Z,-3.26
2022-12-08T23:37:36.708Z,-3.15
2022-12-08T23:40:04.486Z,-3.11
2022-12-08T23:42:31.499Z,-3.21
2022-12-08T23:44:58.029Z,-3.35
2022-12-08T23:47:25.384Z,-3.34
2022-12-08T23:49:52.035Z,-3.18
2022-12-08T23:52:18.661Z,-3.21
2022-12-08T23:54:45.274Z,-3.24
2022-12-08T23:57:11.812Z,-3.34
2022-12-08T23:59:38.702Z,-3.31
